Tropical Cyclones
[Index]
Main Index Home Page Stock Weather Photos Extreme Storms Discussion Storm News and Storm Chasing Reports Tropical Cyclones / Hurricanes / Typhoons Weather Data and Links Wild Fires / Bushfires Weather Observation Techniques Weather Picture Catalogue Tornado Pictures and Reports Stock Video Footage and DVDs for sale
Season 1981-1982 Tropical Cyclone HARRIET Track Map
Season 1981-1982 Summaries: [BoM-AU] [JTWC-AU] [JTWC-SIO] [JTWC-SPAC] [JTWC-SH]
<<- Previous TC | BoM 1981-1982 Season | Next TC ->>

click for intensity scale information  Lat/long Grid: Show Hide

 Date Labels: Show Hide

Bureau of Meteorology Tropical Cyclone Data

Name: HARRIET
Number: 631 / 198182_12

12 Feb 1982 00:00 UTC to 21 Feb 1982 00:00 UTC

    date/time    lat    long    hPa   cat  kts
1982-02-12 00   11.8   104.2   1006                     
1982-02-12 06   11.9   104.6   1005                     
1982-02-12 12   12.1   105.1   1005                     
1982-02-12 18   12.3   105.5   1004                     
1982-02-13 00   12.4   106.0   1004                     
1982-02-13 06   12.4   106.6   1002                     
1982-02-13 12   12.3   107.2   1002                     
1982-02-13 18   12.2   107.6   1001                     
1982-02-14 00   12.1   108.0    999                     
1982-02-14 06   12.1   108.3    998                     
1982-02-14 12   12.1   108.7    996                     
1982-02-14 18   12.1   109.1    994    1                
1982-02-15 00   12.1   109.7    990    1                
1982-02-15 06   12.3   110.3    988    1                
1982-02-15 12   12.7   110.9    988    1                
1982-02-15 18   13.0   111.3    988    1                
1982-02-16 00   13.4   111.6    988    1                
1982-02-16 06   13.8   111.9    990    1                
1982-02-16 12   14.0   112.0    994    1                
1982-02-16 18   14.5   111.8    994    1                
1982-02-17 00   14.6   111.2    994    1                
1982-02-17 06   14.6   110.8    994    1                
1982-02-17 12   14.4   110.4    994    1                
1982-02-17 18   14.1   110.1    994    1                
1982-02-18 00   13.6   110.1    994    1                
1982-02-18 06   13.5   110.5    995    1                
1982-02-18 12   13.7   110.7    998                     
1982-02-18 18   14.1   110.6   1002                     
1982-02-19 00   14.0   110.2   1003                     
1982-02-19 06   13.5   110.0   1003                     
1982-02-19 12   13.1   110.0   1003                     
1982-02-19 18   12.7   109.9   1003                     
1982-02-20 00   12.5   109.3   1003                     
1982-02-20 06   12.4   108.6   1003                     
1982-02-20 12   12.3   108.0   1004                     
1982-02-20 18   12.2   107.3   1005                     
1982-02-21 00   12.1   106.3   1006                     
Winds are 10-min average.

Tropical cyclone tracks developed by Michael Bath using data from the Bureau of Meteorology and Google Maps.


[Australian Severe Weather index] [Copyright Notice] [Email Contacts] [Search This Site] [Privacy Policy]
Document: tropical_cyclone_harriet.htm Updated: 30 May 2013